Time;durP1;ratioP1;P1;durP2;ratioP2;P2;SDS_P1;SDS_P2;PMS_P1;PMS_P2;Temp;Humidity;BMP_temperature;BMP_pressure;BME280_temperature;BME280_humidity;BME280_pressure;Samples;Min_cycle;Max_cycle;Signal;HPM_P1;HPM_P2
2020/12/28 00:00:02;;;;;;;3.67;2.30;;;154.20;2252.80;;;;;;5117532;28;20026;-65
2020/12/28 00:02:27;;;;;;;2.83;2.00;;;154.30;2252.80;;;;;;5118693;28;20110;-66
2020/12/28 00:04:53;;;;;;;3.13;2.10;;;154.30;2252.80;;;;;;5119092;28;20059;-65
2020/12/28 00:07:19;;;;;;;3.58;1.92;;;154.30;2252.80;;;;;;5118689;28;20044;-65
2020/12/28 00:09:45;;;;;;;2.92;1.90;;;154.30;2252.80;;;;;;5119281;28;20378;-67
2020/12/28 00:12:10;;;;;;;3.63;1.98;;;154.30;2252.80;;;;;;5117629;28;20026;-66
2020/12/28 00:14:36;;;;;;;4.30;2.00;;;154.20;2252.80;;;;;;5118859;28;20034;-66
2020/12/28 00:17:02;;;;;;;3.55;1.70;;;154.20;2252.80;;;;;;5118464;28;20032;-66
2020/12/28 00:19:28;;;;;;;3.47;2.25;;;154.20;2252.80;;;;;;5118201;28;20080;-65
2020/12/28 00:21:53;;;;;;;5.28;2.20;;;154.20;2252.80;;;;;;5118713;28;20409;-65
2020/12/28 00:24:19;;;;;;;3.10;2.00;;;154.20;2252.80;;;;;;5119007;28;20332;-65
2020/12/28 00:26:46;;;;;;;3.42;1.80;;;154.20;2252.80;;;;;;5118171;28;20160;-65
2020/12/28 00:29:16;;;;;;;3.78;1.75;;;154.20;2252.80;;;;;;5118902;28;20034;-66
2020/12/28 00:31:43;;;;;;;2.88;1.85;;;154.20;2252.80;;;;;;5118835;28;20019;-66
2020/12/28 00:34:10;;;;;;;3.80;2.03;;;154.10;2252.80;;;;;;5118366;28;20358;-68
2020/12/28 00:36:36;;;;;;;4.45;1.50;;;154.20;2252.80;;;;;;5118417;28;20031;-66
2020/12/28 00:39:05;;;;;;;3.15;1.70;;;154.20;2252.80;;;;;;5118191;28;20023;-67
2020/12/28 00:41:31;;;;;;;3.95;2.25;;;154.20;2252.80;;;;;;5118709;28;20016;-65
2020/12/28 00:43:57;;;;;;;2.65;1.58;;;154.20;2252.80;;;;;;5118669;28;20118;-65
2020/12/28 00:46:22;;;;;;;2.83;1.70;;;154.20;2252.80;;;;;;5118353;28;20023;-65
2020/12/28 00:48:48;;;;;;;2.92;1.83;;;154.20;2252.80;;;;;;5118564;28;20027;-67
2020/12/28 00:51:14;;;;;;;3.35;1.65;;;154.20;2252.80;;;;;;5117620;28;20041;-64
2020/12/28 00:53:41;;;;;;;4.30;2.10;;;154.10;2252.80;;;;;;5117968;28;20027;-67
2020/12/28 00:56:07;;;;;;;5.05;1.90;;;154.20;2252.80;;;;;;5117791;28;20055;-65
2020/12/28 00:58:36;;;;;;;3.83;2.20;;;154.20;2252.80;;;;;;5117822;28;20019;-67
2020/12/28 01:01:06;;;;;;;2.97;1.98;;;154.20;2252.80;;;;;;5117480;28;20363;-66
2020/12/28 01:03:32;;;;;;;2.92;1.92;;;154.30;2252.80;;;;;;5118014;28;20027;-65
2020/12/28 01:05:58;;;;;;;3.92;1.65;;;154.30;2252.80;;;;;;5117453;28;20023;-66
2020/12/28 01:08:24;;;;;;;3.85;1.80;;;154.20;2252.80;;;;;;5117432;28;20436;-67
2020/12/28 01:10:50;;;;;;;4.47;2.35;;;154.30;2252.80;;;;;;5118222;28;20160;-68
2020/12/28 01:13:16;;;;;;;3.00;1.55;;;154.20;2252.80;;;;;;5118214;28;20073;-68
2020/12/28 01:15:43;;;;;;;3.22;1.83;;;154.20;2252.80;;;;;;5117290;28;20032;-66
2020/12/28 01:18:09;;;;;;;2.63;1.65;;;154.30;2252.80;;;;;;5117777;28;20024;-67
2020/12/28 01:20:38;;;;;;;3.20;1.60;;;154.40;2252.80;;;;;;5117881;28;20413;-66
2020/12/28 01:23:04;;;;;;;3.42;1.60;;;154.50;2252.80;;;;;;5117695;28;20020;-66
2020/12/28 01:25:29;;;;;;;2.95;1.55;;;154.50;2252.80;;;;;;5118087;28;20028;-66
2020/12/28 01:27:55;;;;;;;2.90;1.55;;;179.30;2252.80;;;;;;5117464;28;20328;-65
2020/12/28 01:30:21;;;;;;;5.50;1.60;;;179.30;2252.80;;;;;;5117746;28;20421;-67
2020/12/28 01:32:46;;;;;;;4.47;1.70;;;179.40;2252.80;;;;;;5117297;28;20463;-69
2020/12/28 01:35:12;;;;;;;2.65;1.40;;;179.40;2252.80;;;;;;5117694;28;20370;-65
2020/12/28 01:37:38;;;;;;;3.25;1.60;;;179.40;2252.80;;;;;;5117873;28;20028;-65
2020/12/28 01:40:04;;;;;;;3.47;1.70;;;179.50;2252.80;;;;;;5117035;28;20059;-66
2020/12/28 01:42:30;;;;;;;2.78;1.55;;;179.50;2252.80;;;;;;5116817;28;20027;-67
2020/12/28 01:44:56;;;;;;;3.80;1.98;;;179.50;2252.80;;;;;;5117892;28;20024;-67
2020/12/28 01:47:22;;;;;;;3.35;1.60;;;179.50;2252.80;;;;;;5117267;28;20020;-65
2020/12/28 01:49:47;;;;;;;2.88;1.50;;;179.50;2252.80;;;;;;5117576;28;20023;-64
2020/12/28 01:52:14;;;;;;;3.35;1.67;;;179.50;2252.80;;;;;;5117799;28;20103;-64
2020/12/28 01:54:40;;;;;;;2.60;1.55;;;179.50;2252.80;;;;;;5117202;28;20052;-66
2020/12/28 01:57:05;;;;;;;2.92;1.80;;;179.60;2252.80;;;;;;5117018;28;20429;-65
2020/12/28 01:59:31;;;;;;;2.65;1.30;;;179.60;2252.80;;;;;;5117216;28;20031;-66
2020/12/28 02:02:00;;;;;;;2.28;1.40;;;179.60;2252.80;;;;;;5117693;28;20058;-65
2020/12/28 02:04:25;;;;;;;2.70;1.67;;;179.60;2252.80;;;;;;5117451;28;20057;-66
2020/12/28 02:06:51;;;;;;;2.80;1.52;;;179.60;2252.80;;;;;;5117092;28;20294;-67
2020/12/28 02:09:17;;;;;;;4.97;1.38;;;179.60;2252.80;;;;;;5117380;28;20024;-65
2020/12/28 02:11:43;;;;;;;2.97;1.17;;;179.50;2252.80;;;;;;5116128;28;20016;-65
2020/12/28 02:14:09;;;;;;;3.33;1.58;;;179.60;2252.80;;;;;;5116711;28;20352;-66
2020/12/28 02:16:35;;;;;;;3.65;2.08;;;179.60;2252.80;;;;;;5117273;28;20036;-68
2020/12/28 02:19:01;;;;;;;4.38;1.83;;;179.60;2252.80;;;;;;5116504;28;20499;-67
2020/12/28 02:21:27;;;;;;;3.53;1.85;;;179.70;2252.80;;;;;;5117265;28;20051;-65
2020/12/28 02:23:53;;;;;;;4.22;1.55;;;179.60;2252.80;;;;;;5117248;28;20408;-66
2020/12/28 02:26:19;;;;;;;3.53;1.73;;;179.70;2252.80;;;;;;5116970;28;20180;-64
2020/12/28 02:28:45;;;;;;;3.33;1.75;;;179.70;2252.80;;;;;;5116657;28;20023;-65
2020/12/28 02:31:10;;;;;;;2.92;1.90;;;179.70;2252.80;;;;;;5117064;28;20023;-67
2020/12/28 02:33:40;;;;;;;2.65;1.38;;;179.80;2252.80;;;;;;5117617;28;20077;-66
2020/12/28 02:36:08;;;;;;;2.20;1.35;;;179.80;2252.80;;;;;;5120628;28;20015;-65
2020/12/28 02:38:35;;;;;;;2.90;1.50;;;179.80;2252.80;;;;;;5119906;28;20032;-66
2020/12/28 02:41:03;;;;;;;3.08;1.55;;;179.80;2252.80;;;;;;5120753;28;20488;-68
2020/12/28 02:43:29;;;;;;;2.65;1.50;;;179.80;2252.80;;;;;;5120086;28;20047;-67
2020/12/28 02:45:56;;;;;;;2.72;1.55;;;179.80;2252.80;;;;;;5119831;28;20020;-64
2020/12/28 02:48:22;;;;;;;3.17;1.30;;;179.90;2252.80;;;;;;5120327;28;20105;-65
2020/12/28 02:50:47;;;;;;;2.90;1.50;;;179.90;2252.80;;;;;;5120563;28;20030;-66
2020/12/28 02:53:13;;;;;;;4.47;1.60;;;179.90;2252.80;;;;;;5120514;28;20020;-66
2020/12/28 02:55:39;;;;;;;2.20;1.40;;;180.00;2252.80;;;;;;5120748;28;20028;-66
2020/12/28 02:58:05;;;;;;;3.53;1.67;;;180.00;2252.80;;;;;;5120184;28;20085;-65
2020/12/28 03:00:30;;;;;;;3.13;1.60;;;180.10;2252.80;;;;;;5119844;28;20019;-66
2020/12/28 03:02:56;;;;;;;3.75;1.73;;;180.10;2252.80;;;;;;5120578;28;20457;-67
2020/12/28 03:05:22;;;;;;;2.38;1.42;;;180.10;2252.80;;;;;;5120581;28;20096;-67
2020/12/28 03:07:48;;;;;;;2.70;1.50;;;180.10;2252.80;;;;;;5120217;28;20096;-66
2020/12/28 03:10:13;;;;;;;3.13;1.75;;;180.10;2252.80;;;;;;5120349;28;20019;-65
2020/12/28 03:12:39;;;;;;;3.05;1.70;;;180.10;2252.80;;;;;;5120136;28;20073;-65
2020/12/28 03:15:05;;;;;;;4.82;1.50;;;204.80;2252.80;;;;;;5119841;28;20492;-67
2020/12/28 03:17:31;;;;;;;2.67;1.58;;;204.80;2252.80;;;;;;5119992;28;20058;-66
2020/12/28 03:19:56;;;;;;;2.75;1.65;;;204.80;2252.80;;;;;;5119775;28;20081;-66
2020/12/28 03:22:22;;;;;;;3.00;1.80;;;204.80;2252.80;;;;;;5120214;28;20359;-64
2020/12/28 03:24:48;;;;;;;11.30;1.75;;;204.80;2252.80;;;;;;5120251;28;20019;-66
2020/12/28 03:27:14;;;;;;;3.13;1.52;;;180.10;2252.80;;;;;;5119592;28;20084;-66
2020/12/28 03:29:39;;;;;;;3.63;1.67;;;204.80;2252.80;;;;;;5119502;28;20452;-67
2020/12/28 03:32:05;;;;;;;5.80;1.60;;;204.80;2252.80;;;;;;5119445;28;20050;-66
2020/12/28 03:34:31;;;;;;;2.70;1.48;;;204.80;2227.20;;;;;;5119788;28;20337;-66
2020/12/28 03:36:57;;;;;;;3.85;1.95;;;204.80;2252.80;;;;;;5119028;28;20074;-66
2020/12/28 03:39:23;;;;;;;3.38;1.67;;;204.80;2252.80;;;;;;5119603;28;20052;-66
2020/12/28 03:41:49;;;;;;;2.85;1.73;;;180.10;2252.80;;;;;;5119246;28;20031;-66
2020/12/28 03:44:14;;;;;;;4.40;1.75;;;204.80;2252.80;;;;;;5119534;28;20027;-65
2020/12/28 03:46:40;;;;;;;2.38;1.23;;;204.80;2252.80;;;;;;5118226;28;20084;-67
2020/12/28 03:49:06;;;;;;;2.65;1.58;;;204.80;2252.80;;;;;;5119223;28;20030;-66
2020/12/28 03:51:32;;;;;;;2.72;1.63;;;204.80;2252.80;;;;;;5119363;28;20417;-66
2020/12/28 03:53:57;;;;;;;2.90;1.50;;;204.80;2252.80;;;;;;5119356;28;20051;-65
2020/12/28 03:56:23;;;;;;;2.28;1.50;;;204.80;2227.20;;;;;;5119173;28;20027;-64
2020/12/28 03:58:49;;;;;;;4.60;1.50;;;204.90;2227.20;;;;;;5119222;28;20100;-66
2020/12/28 04:01:15;;;;;;;3.13;1.73;;;204.90;2227.20;;;;;;5119135;28;20051;-66
2020/12/28 04:03:41;;;;;;;2.90;1.70;;;204.90;2227.20;;;;;;5118369;28;20399;-65
2020/12/28 04:06:07;;;;;;;3.10;1.60;;;204.90;2227.20;;;;;;5118707;28;20024;-66
2020/12/28 04:08:33;;;;;;;3.42;1.77;;;204.90;2227.20;;;;;;5119342;28;20034;-66
2020/12/28 04:10:59;;;;;;;3.53;1.60;;;204.90;2227.20;;;;;;5118736;28;20027;-67
2020/12/28 04:13:25;;;;;;;2.78;1.80;;;205.00;2227.20;;;;;;5118952;28;20481;-66
2020/12/28 04:15:51;;;;;;;3.10;1.63;;;205.00;2227.20;;;;;;5118894;28;20302;-64
2020/12/28 04:18:17;;;;;;;4.82;1.77;;;205.00;2227.20;;;;;;5118826;28;20031;-66
2020/12/28 04:20:43;;;;;;;3.05;1.70;;;204.90;2227.20;;;;;;5118818;28;20102;-65
2020/12/28 04:23:09;;;;;;;4.10;2.10;;;204.90;2227.20;;;;;;5118505;28;20508;-65
2020/12/28 04:25:35;;;;;;;3.75;1.80;;;204.90;2227.20;;;;;;5118406;28;20050;-66
2020/12/28 04:28:00;;;;;;;2.85;1.70;;;204.90;2227.20;;;;;;5118666;28;20458;-65
2020/12/28 04:30:26;;;;;;;3.88;1.77;;;205.00;2227.20;;;;;;5118667;28;20023;-68
2020/12/28 04:32:52;;;;;;;2.55;1.42;;;205.00;2227.20;;;;;;5118803;28;20047;-65
2020/12/28 04:35:18;;;;;;;3.40;1.85;;;205.00;2227.20;;;;;;5118223;28;20440;-67
2020/12/28 04:37:44;;;;;;;4.03;2.40;;;205.10;2227.20;;;;;;5117791;28;20497;-66
2020/12/28 04:40:10;;;;;;;12.85;6.78;;;205.10;2227.20;;;;;;5118467;28;20362;-66
2020/12/28 04:42:41;;;;;;;23.38;12.52;;;205.10;2201.60;;;;;;5118402;28;20016;-65
2020/12/28 04:45:08;;;;;;;9.18;3.30;;;205.10;2201.60;;;;;;5118456;28;20080;-65
2020/12/28 04:47:33;;;;;;;4.57;2.40;;;205.10;2201.60;;;;;;5118285;28;20034;-65
2020/12/28 04:49:59;;;;;;;7.10;3.65;;;205.10;2201.60;;;;;;5117986;28;20417;-65
2020/12/28 04:52:27;;;;;;;6.38;2.55;;;205.20;2201.60;;;;;;5118018;28;20148;-67
2020/12/28 04:54:53;;;;;;;7.68;6.07;;;205.10;2201.60;;;;;;5118207;28;20387;-67
2020/12/28 04:57:19;;;;;;;10.27;8.45;;;205.20;2176.00;;;;;;5117503;28;20031;-67
2020/12/28 04:59:45;;;;;;;5.20;4.15;;;205.20;2176.00;;;;;;5118139;28;20310;-64
2020/12/28 05:02:10;;;;;;;4.80;2.08;;;205.10;2176.00;;;;;;5118078;28;20023;-65
2020/12/28 05:04:36;;;;;;;2.92;2.00;;;205.10;2176.00;;;;;;5118349;28;20032;-65
2020/12/28 05:07:06;;;;;;;4.38;2.75;;;205.20;2176.00;;;;;;5117942;28;20051;-65
2020/12/28 05:09:33;;;;;;;6.80;4.97;;;205.10;2176.00;;;;;;5118255;28;20048;-66
2020/12/28 05:12:04;;;;;;;15.82;9.45;;;205.20;2176.00;;;;;;5117903;28;20027;-66
2020/12/28 05:14:30;;;;;;;13.45;9.68;;;205.10;2150.40;;;;;;5118260;28;20031;-66
2020/12/28 05:16:57;;;;;;;10.52;6.88;;;205.10;2150.40;;;;;;5117567;28;20077;-66
2020/12/28 05:19:23;;;;;;;13.25;10.45;;;205.10;2150.40;;;;;;5117900;28;20079;-66
2020/12/28 05:21:49;;;;;;;20.75;10.38;;;205.10;2150.40;;;;;;5117822;28;20089;-67
2020/12/28 05:24:16;;;;;;;8.18;6.32;;;205.20;2150.40;;;;;;5117748;28;20027;-66
2020/12/28 05:26:43;;;;;;;4.78;3.83;;;205.20;2150.40;;;;;;5117134;28;20413;-64
2020/12/28 05:29:25;;;;;;;5.20;3.80;;;205.20;2150.40;;;;;;5117108;28;20375;-65
2020/12/28 05:31:53;;;;;;;6.38;5.70;;;205.10;2176.00;;;;;;5117818;28;20028;-65
2020/12/28 05:34:21;;;;;;;5.75;3.25;;;205.20;2150.40;;;;;;5117741;28;20139;-66
2020/12/28 05:36:49;;;;;;;4.55;3.13;;;205.20;2150.40;;;;;;5117338;28;20031;-64
2020/12/28 05:39:18;;;;;;;5.60;4.20;;;205.20;2176.00;;;;;;5117623;28;20383;-66
2020/12/28 05:42:06;;;;;;;6.03;4.28;;;205.20;2176.00;;;;;;5117083;28;20023;-67
2020/12/28 05:44:32;;;;;;;29.13;20.48;;;205.20;2176.00;;;;;;5117365;28;20050;-65
2020/12/28 05:47:11;;;;;;;51.22;29.30;;;205.20;2150.40;;;;;;5116717;28;20417;-66
2020/12/28 05:49:41;;;;;;;54.92;26.20;;;205.20;2176.00;;;;;;5117353;28;20034;-66
2020/12/28 05:52:09;;;;;;;213.77;84.05;;;205.20;2176.00;;;;;;5117267;28;20529;-66
2020/12/28 05:54:36;;;;;;;374.30;161.75;;;205.30;2150.40;;;;;;5117175;28;20085;-65
2020/12/28 05:57:03;;;;;;;161.57;90.00;;;205.30;2150.40;;;;;;5117616;28;20059;-66
2020/12/28 05:59:31;;;;;;;59.60;38.38;;;205.20;2176.00;;;;;;5117208;28;20428;-66
2020/12/28 06:01:58;;;;;;;30.00;21.75;;;205.30;2150.40;;;;;;5117141;28;20073;-65
2020/12/28 06:04:25;;;;;;;39.38;27.25;;;205.30;2150.40;;;;;;5117455;28;20072;-65
2020/12/28 06:06:57;;;;;;;75.53;48.42;;;205.30;2150.40;;;;;;5117375;28;20106;-66
2020/12/28 06:09:23;;;;;;;7.53;5.90;;;205.30;2150.40;;;;;;5118043;28;20027;-66
2020/12/28 06:11:49;;;;;;;6.50;4.75;;;205.30;2150.40;;;;;;5121652;28;20118;-65
2020/12/28 06:14:20;;;;;;;6.93;4.18;;;205.40;2150.40;;;;;;5121056;28;20472;-66
2020/12/28 06:16:46;;;;;;;4.40;2.75;;;205.30;2150.40;;;;;;5121240;28;20028;-66
2020/12/28 06:19:23;;;;;;;5.78;2.80;;;205.40;2150.40;;;;;;5120960;28;20030;-66
2020/12/28 06:21:51;;;;;;;4.80;3.00;;;205.40;2150.40;;;;;;5121226;28;20110;-66
2020/12/28 06:24:31;;;;;;;3.83;2.65;;;205.40;2150.40;;;;;;5121422;28;20031;-65
2020/12/28 06:27:03;;;;;;;5.70;2.88;;;205.40;2150.40;;;;;;5121349;28;20031;-66
2020/12/28 06:29:30;;;;;;;5.07;2.33;;;205.40;2150.40;;;;;;5120858;28;20058;-66
2020/12/28 06:31:56;;;;;;;5.22;2.88;;;205.40;2150.40;;;;;;5121028;28;20028;-66
2020/12/28 06:34:22;;;;;;;4.57;3.28;;;205.40;2150.40;;;;;;5121258;28;20080;-65
2020/12/28 06:36:59;;;;;;;11.40;8.48;;;205.40;2124.80;;;;;;5120796;28;20031;-64
2020/12/28 06:39:25;;;;;;;5.50;3.42;;;205.50;2124.80;;;;;;5120877;28;20436;-68
2020/12/28 06:41:51;;;;;;;5.65;3.03;;;205.50;2099.20;;;;;;5120770;27;20028;-64
2020/12/28 06:44:28;;;;;;;11.73;7.38;;;205.60;2099.20;;;;;;5120764;28;20028;-64
2020/12/28 06:46:54;;;;;;;27.38;18.38;;;205.60;2099.20;;;;;;5121000;28;20024;-64
2020/12/28 06:49:20;;;;;;;8.82;5.07;;;205.70;2073.60;;;;;;5120582;28;20034;-62
2020/12/28 06:51:46;;;;;;;8.30;5.70;;;205.70;2073.60;;;;;;5120313;28;20146;-63
2020/12/28 06:54:12;;;;;;;8.18;4.65;;;230.50;2048.00;;;;;;5120834;28;20035;-62
2020/12/28 06:56:37;;;;;;;6.10;4.47;;;230.50;2048.00;;;;;;5120671;28;20020;-64
2020/12/28 06:59:03;;;;;;;7.05;3.97;;;230.70;2048.00;;;;;;5120398;28;20028;-62
2020/12/28 07:01:29;;;;;;;8.57;4.68;;;230.70;2048.00;;;;;;5120077;28;20065;-63
2020/12/28 07:03:55;;;;;;;6.18;2.90;;;230.90;2022.40;;;;;;5120058;28;20102;-64
2020/12/28 07:06:22;;;;;;;5.70;3.08;;;230.90;2022.40;;;;;;5120571;28;20408;-63
2020/12/28 07:08:48;;;;;;;3.45;2.50;;;231.00;2022.40;;;;;;5120583;28;20031;-65
2020/12/28 07:11:20;;;;;;;3.85;2.40;;;231.10;1996.80;;;;;;5119901;28;20020;-63
2020/12/28 07:13:46;;;;;;;5.28;3.50;;;231.00;1996.80;;;;;;5120487;28;20128;-65
2020/12/28 07:16:13;;;;;;;3.75;2.33;;;231.00;2022.40;;;;;;5120405;28;20024;-65
2020/12/28 07:18:39;;;;;;;3.47;2.55;;;231.10;1996.80;;;;;;5119729;28;20031;-63
2020/12/28 07:21:06;;;;;;;6.97;4.53;;;231.10;1971.20;;;;;;5119826;28;20036;-64
2020/12/28 07:23:33;;;;;;;4.22;2.75;;;231.10;1996.80;;;;;;5120201;28;20034;-64
2020/12/28 07:26:12;;;;;;;4.30;2.90;;;231.20;1971.20;;;;;;5119958;28;20019;-63
2020/12/28 07:28:40;;;;;;;6.90;2.85;;;231.30;1945.60;;;;;;5120185;28;20409;-64
2020/12/28 07:31:07;;;;;;;4.28;2.30;;;256.00;1945.60;;;;;;5119783;28;20320;-64
2020/12/28 07:33:33;;;;;;;4.75;2.90;;;256.20;1920.00;;;;;;5119448;28;20050;-64
2020/12/28 07:36:14;;;;;;;3.92;2.53;;;256.20;1920.00;;;;;;5120015;27;20118;-63
2020/12/28 07:38:45;;;;;;;4.20;2.47;;;256.30;1945.60;;;;;;5119924;28;20416;-65
2020/12/28 07:41:15;;;;;;;7.35;4.55;;;256.30;1945.60;;;;;;5119493;28;20119;-63
2020/12/28 07:43:51;;;;;;;6.82;4.00;;;256.40;1920.00;;;;;;5119820;28;20024;-63
2020/12/28 07:46:30;;;;;;;3.63;2.28;;;256.50;1894.40;;;;;;5118628;28;20341;-63
2020/12/28 07:49:16;;;;;;;5.35;3.67;;;256.50;1894.40;;;;;;5119679;28;20027;-64
2020/12/28 07:52:02;;;;;;;4.22;2.40;;;256.70;1894.40;;;;;;5114703;28;20428;-66
2020/12/28 07:54:47;;;;;;;4.95;2.90;;;256.80;1868.80;;;;;;5117978;28;20023;-65
2020/12/28 07:57:21;;;;;;;4.85;2.60;;;256.60;1868.80;;;;;;5118952;28;20317;-67
2020/12/28 08:00:06;;;;;;;3.70;2.00;;;256.40;1894.40;;;;;;5118723;28;20106;-66
2020/12/28 08:03:12;;;;;;;3.83;2.38;;;256.50;1868.80;;;;;;5119538;28;20027;-65
2020/12/28 08:05:39;;;;;;;7.25;3.63;;;256.60;1868.80;;;;;;5119228;28;20024;-65
2020/12/28 08:08:04;;;;;;;8.32;3.40;;;256.60;1868.80;;;;;;5118236;28;20020;-65
2020/12/28 08:10:30;;;;;;;7.15;4.28;;;256.60;1843.20;;;;;;5118966;28;20046;-65
2020/12/28 08:12:59;;;;;;;9.48;4.95;;;256.70;1843.20;;;;;;5119005;28;20051;-67
2020/12/28 08:15:28;;;;;;;7.32;4.10;;;256.70;1843.20;;;;;;5118429;28;20023;-64
2020/12/28 08:18:04;;;;;;;7.65;5.82;;;256.90;1843.20;;;;;;5118989;28;20039;-66
2020/12/28 08:20:30;;;;;;;8.20;4.00;;;281.60;1843.20;;;;;;5118576;28;20077;-66
2020/12/28 08:22:56;;;;;;;5.75;3.72;;;281.60;1843.20;;;;;;5118541;28;20023;-64
2020/12/28 08:25:27;;;;;;;4.40;2.40;;;281.70;1843.20;;;;;;5118471;28;20028;-68
2020/12/28 08:27:56;;;;;;;6.35;3.10;;;281.90;1792.00;;;;;;5118425;28;20058;-65
2020/12/28 08:30:25;;;;;;;6.15;3.03;;;281.90;1843.20;;;;;;5118903;28;20020;-65
2020/12/28 08:32:51;;;;;;;5.47;2.47;;;282.00;1817.60;;;;;;5117394;28;20051;-65
2020/12/28 08:35:17;;;;;;;4.40;2.30;;;282.10;1792.00;;;;;;5118265;28;20031;-67
2020/12/28 08:37:48;;;;;;;5.43;2.65;;;282.00;1792.00;;;;;;5118670;28;20336;-67
2020/12/28 08:40:19;;;;;;;8.18;2.97;;;282.20;1792.00;;;;;;5118405;28;20023;-66
2020/12/28 08:42:53;;;;;;;6.22;2.58;;;282.20;1766.40;;;;;;5118465;28;20026;-65
2020/12/28 08:45:29;;;;;;;4.78;2.40;;;282.40;1766.40;;;;;;5118473;28;20446;-65
2020/12/28 08:47:59;;;;;;;3.75;2.20;;;282.50;1766.40;;;;;;5118087;28;20031;-67
2020/12/28 08:50:32;;;;;;;5.00;2.60;;;282.50;1766.40;;;;;;5117769;28;20424;-64
2020/12/28 08:52:58;;;;;;;4.50;2.90;;;307.20;1792.00;;;;;;5117721;28;20455;-65
2020/12/28 08:55:24;;;;;;;3.50;2.08;;;282.30;1766.40;;;;;;5118015;28;20054;-69
2020/12/28 08:57:59;;;;;;;4.22;1.77;;;282.20;1766.40;;;;;;5117568;28;20412;-65
2020/12/28 09:00:27;;;;;;;10.30;6.13;;;282.20;1740.80;;;;;;5117691;28;20031;-64
2020/12/28 09:02:55;;;;;;;11.88;6.55;;;282.30;1792.00;;;;;;5117510;28;20118;-67
2020/12/28 09:05:22;;;;;;;8.13;3.77;;;282.40;1766.40;;;;;;5117685;28;20355;-67
2020/12/28 09:07:48;;;;;;;15.25;5.25;;;282.50;1740.80;;;;;;5117743;28;20023;-66
2020/12/28 09:10:19;;;;;;;9.73;5.13;;;282.40;1740.80;;;;;;5117387;28;20518;-65
2020/12/28 09:12:56;;;;;;;11.32;3.30;;;282.20;1740.80;;;;;;5117165;28;20024;-68
2020/12/28 09:15:27;;;;;;;5.97;3.78;;;282.10;1766.40;;;;;;5116664;28;20169;-71
2020/12/28 09:17:54;;;;;;;6.82;3.60;;;282.00;1766.40;;;;;;5117133;28;20032;-67
2020/12/28 09:20:20;;;;;;;6.18;3.40;;;282.00;1766.40;;;;;;5117597;28;20151;-63
2020/12/28 09:22:48;;;;;;;5.07;2.97;;;282.10;1766.40;;;;;;5117928;28;20048;-65
2020/12/28 09:25:14;;;;;;;8.98;3.20;;;282.30;1792.00;;;;;;5116639;28;20107;-64
2020/12/28 09:27:40;;;;;;;6.10;2.53;;;282.30;1792.00;;;;;;5116340;28;20114;-66
2020/12/28 09:30:07;;;;;;;5.13;2.40;;;282.50;1740.80;;;;;;5117697;28;20033;-65
2020/12/28 09:32:34;;;;;;;4.03;1.60;;;307.30;1740.80;;;;;;5117057;28;20054;-63
2020/12/28 09:34:59;;;;;;;8.70;3.70;;;307.40;1715.20;;;;;;5117282;28;20068;-65
2020/12/28 09:37:25;;;;;;;4.03;2.30;;;307.70;1740.80;;;;;;5117470;28;20035;-65
2020/12/28 09:39:51;;;;;;;3.10;1.73;;;307.80;1689.60;;;;;;5116714;28;20110;-65
2020/12/28 09:42:17;;;;;;;15.98;9.75;;;307.90;1689.60;;;;;;5116907;28;20107;-64
2020/12/28 09:44:43;;;;;;;17.40;10.15;;;308.10;1664.00;;;;;;5118488;28;20023;-64
2020/12/28 09:47:08;;;;;;;107.60;49.38;;;332.80;1664.00;;;;;;5121949;28;20073;-66
2020/12/28 09:49:34;;;;;;;148.10;78.25;;;332.90;1638.40;;;;;;5122067;28;20290;-65
2020/12/28 09:52:00;;;;;;;67.28;38.20;;;332.90;1664.00;;;;;;5121273;28;20031;-65
2020/12/28 09:54:26;;;;;;;64.68;37.45;;;333.10;1638.40;;;;;;5121708;28;20027;-64
2020/12/28 09:56:53;;;;;;;37.72;24.05;;;333.10;1638.40;;;;;;5121615;28;20035;-67
2020/12/28 09:59:18;;;;;;;40.30;22.60;;;333.10;1612.80;;;;;;5121311;28;20033;-64
2020/12/28 10:01:45;;;;;;;48.33;23.40;;;333.10;1638.40;;;;;;5121593;28;20106;-65
2020/12/28 10:04:12;;;;;;;27.48;12.43;;;333.30;1638.40;;;;;;5121771;28;20027;-65
2020/12/28 10:06:40;;;;;;;14.43;5.60;;;333.20;1612.80;;;;;;5121197;28;20024;-65
2020/12/28 10:09:09;;;;;;;37.13;16.80;;;333.10;1612.80;;;;;;5121705;28;20028;-63
2020/12/28 10:11:35;;;;;;;18.77;8.20;;;333.00;1612.80;;;;;;5120390;28;20302;-65
2020/12/28 10:14:01;;;;;;;32.60;15.82;;;332.80;1587.20;;;;;;5117479;27;20038;-64
2020/12/28 10:16:28;;;;;;;47.33;21.77;;;332.80;1612.80;;;;;;5119292;28;20426;-63
2020/12/28 10:18:55;;;;;;;41.13;23.75;;;332.80;1612.80;;;;;;5120046;28;20039;-64
2020/12/28 10:21:25;;;;;;;36.45;12.90;;;332.80;1638.40;;;;;;5120694;28;20024;-64
2020/12/28 10:24:04;;;;;;;14.30;9.63;;;308.10;1638.40;;;;;;5120350;28;20035;-65
2020/12/28 10:26:39;;;;;;;21.67;14.50;;;332.90;1664.00;;;;;;5112878;28;20031;-63
2020/12/28 10:29:16;;;;;;;9.85;6.07;;;332.80;1612.80;;;;;;5109551;28;20055;-64
2020/12/28 10:31:42;;;;;;;8.50;5.95;;;308.10;1612.80;;;;;;5110147;28;20043;-64
2020/12/28 10:34:11;;;;;;;8.23;4.50;;;332.80;1638.40;;;;;;5107778;28;20082;-64
2020/12/28 10:36:41;;;;;;;8.85;6.18;;;332.80;1638.40;;;;;;5107356;28;20032;-64
2020/12/28 10:39:16;;;;;;;11.05;7.47;;;308.10;1612.80;;;;;;5113061;28;20031;-66
2020/12/28 10:41:45;;;;;;;10.85;6.72;;;308.10;1587.20;;;;;;5099341;28;20027;-67
2020/12/28 10:44:11;;;;;;;8.30;6.32;;;332.80;1638.40;;;;;;5100133;28;20020;-65
2020/12/28 10:46:37;;;;;;;17.05;12.15;;;332.80;1612.80;;;;;;5113906;28;20409;-64
2020/12/28 10:49:04;;;;;;;10.38;7.63;;;332.90;1612.80;;;;;;5120074;28;20030;-64
2020/12/28 10:51:30;;;;;;;10.57;7.80;;;333.10;1638.40;;;;;;5120054;28;20324;-63
2020/12/28 10:53:56;;;;;;;5.40;3.10;;;333.20;1612.80;;;;;;5120347;28;20076;-67
2020/12/28 10:56:24;;;;;;;6.20;3.35;;;333.30;1587.20;;;;;;5119502;28;20027;-65
2020/12/28 10:58:49;;;;;;;7.20;4.53;;;333.40;1561.60;;;;;;5119332;28;20329;-67
2020/12/28 11:01:15;;;;;;;5.85;4.28;;;333.40;1561.60;;;;;;5119655;28;20019;-65
2020/12/28 11:03:41;;;;;;;4.25;2.60;;;333.30;1561.60;;;;;;5120104;28;20114;-63
2020/12/28 11:06:07;;;;;;;8.50;4.78;;;333.60;1561.60;;;;;;5120032;28;20024;-66
2020/12/28 11:08:33;;;;;;;5.57;3.25;;;358.40;1536.00;;;;;;5120241;28;20039;-63
2020/12/28 11:10:58;;;;;;;8.93;5.57;;;333.60;1510.40;;;;;;5120088;28;20026;-63
2020/12/28 11:13:24;;;;;;;13.70;8.82;;;333.70;1536.00;;;;;;5119723;28;20417;-67
2020/12/28 11:15:50;;;;;;;24.90;12.95;;;358.40;1510.40;;;;;;5120073;28;20428;-65
2020/12/28 11:18:16;;;;;;;35.80;19.02;;;358.60;1510.40;;;;;;5119522;28;20031;-64
2020/12/28 11:20:42;;;;;;;24.92;12.55;;;359.00;1484.80;;;;;;5119602;28;20031;-65
2020/12/28 11:23:07;;;;;;;22.17;12.77;;;384.20;1433.60;;;;;;5119637;28;20042;-64
2020/12/28 11:25:33;;;;;;;24.58;15.35;;;384.70;1408.00;;;;;;5118154;28;20023;-65
2020/12/28 11:27:59;;;;;;;20.48;11.25;;;384.50;1408.00;;;;;;5118710;28;20028;-64
2020/12/28 11:30:25;;;;;;;12.85;8.00;;;384.30;1408.00;;;;;;5116952;28;20023;-67
2020/12/28 11:32:51;;;;;;;13.90;4.63;;;384.10;1408.00;;;;;;5119746;28;20122;-64
2020/12/28 11:35:16;;;;;;;33.80;18.20;;;359.10;1459.20;;;;;;5119363;28;20019;-65
2020/12/28 11:37:42;;;;;;;17.67;8.73;;;358.90;1484.80;;;;;;5119719;28;20032;-67
2020/12/28 11:40:08;;;;;;;8.55;5.30;;;358.80;1459.20;;;;;;5119226;28;20077;-64
2020/12/28 11:42:34;;;;;;;14.75;9.48;;;358.70;1459.20;;;;;;5118843;28;20028;-64
2020/12/28 11:45:01;;;;;;;26.70;13.90;;;358.60;1484.80;;;;;;5118976;28;20026;-65
2020/12/28 11:47:26;;;;;;;13.43;8.32;;;358.60;1510.40;;;;;;5118173;28;20032;-63
2020/12/28 11:49:52;;;;;;;14.52;8.98;;;333.70;1510.40;;;;;;5119421;28;20118;-64
2020/12/28 11:52:20;;;;;;;22.35;15.15;;;333.70;1510.40;;;;;;5119445;28;20119;-65
2020/12/28 11:54:47;;;;;;;6.35;4.15;;;358.40;1510.40;;;;;;5119050;28;20363;-64
2020/12/28 11:57:13;;;;;;;8.75;3.85;;;358.50;1484.80;;;;;;5118493;28;20336;-64
2020/12/28 11:59:38;;;;;;;8.18;5.85;;;359.00;1459.20;;;;;;5119140;28;20123;-63
2020/12/28 12:02:04;;;;;;;17.25;9.38;;;359.20;1433.60;;;;;;5119127;28;20102;-64
2020/12/28 12:04:51;;;;;;;5.72;3.90;;;384.40;1408.00;;;;;;5118840;28;20023;-63
2020/12/28 12:07:22;;;;;;;3.92;3.13;;;384.50;1382.40;;;;;;5117818;28;20028;-62
2020/12/28 12:09:49;;;;;;;17.10;10.00;;;384.20;1382.40;;;;;;5108007;27;20429;-62
2020/12/28 12:12:15;;;;;;;8.07;5.20;;;359.30;1433.60;;;;;;5118260;28;20019;-65
2020/12/28 12:18:03;;;;;;;6.85;4.75;;;359.10;1433.60;;;;;;5117801;28;20046;-61